createdAt,value
2018-05-09T00:01:30.075Z,100222.50
2018-05-09T00:04:02.623Z,100223.95
2018-05-09T00:06:35.193Z,100228.83
2018-05-09T00:09:07.744Z,100236.56
2018-05-09T00:11:40.307Z,100232.97
2018-05-09T00:14:12.844Z,100235.95
2018-05-09T00:16:45.398Z,100236.85
2018-05-09T00:19:17.919Z,100233.17
2018-05-09T00:21:50.488Z,100236.88
2018-05-09T00:24:23.024Z,100234.41
2018-05-09T00:26:55.598Z,100233.20
2018-05-09T00:29:28.193Z,100226.08
2018-05-09T00:32:00.750Z,100230.90
2018-05-09T00:34:33.314Z,100226.30
2018-05-09T00:37:05.881Z,100226.02
2018-05-09T00:39:38.424Z,100226.98
2018-05-09T00:42:10.986Z,100225.42
2018-05-09T00:44:43.564Z,100226.88
2018-05-09T00:47:16.107Z,100223.89
2018-05-09T00:49:48.696Z,100219.67
2018-05-09T00:52:21.278Z,100217.59
2018-05-09T00:54:53.889Z,100223.62
2018-05-09T00:57:26.440Z,100220.93
2018-05-09T00:59:59.022Z,100219.37
2018-05-09T01:02:31.585Z,100216.69
2018-05-09T01:05:04.145Z,100213.91
2018-05-09T01:07:36.681Z,100213.55
2018-05-09T01:10:09.264Z,100214.83
2018-05-09T01:12:41.813Z,100209.41
2018-05-09T01:15:14.363Z,100208.12
2018-05-09T01:17:46.891Z,100206.01
2018-05-09T01:20:19.432Z,100204.72
2018-05-09T01:22:51.965Z,100202.64
2018-05-09T01:25:24.616Z,100198.55
2018-05-09T01:27:57.161Z,100193.16
2018-05-09T01:30:29.713Z,100198.11
2018-05-09T01:33:02.247Z,100198.20
2018-05-09T01:35:34.811Z,100196.13
2018-05-09T01:38:07.377Z,100190.11
2018-05-09T01:40:39.952Z,100196.86
2018-05-09T01:43:12.507Z,100195.25
2018-05-09T01:45:45.055Z,100195.67
2018-05-09T01:48:17.596Z,100190.61
2018-05-09T01:50:50.143Z,100196.95
2018-05-09T01:53:22.689Z,100190.28
2018-05-09T01:55:55.240Z,100193.30
2018-05-09T01:58:27.793Z,100188.25
2018-05-09T02:01:00.345Z,100188.38
2018-05-09T02:03:32.868Z,100192.81
2018-05-09T02:06:05.532Z,100186.52
2018-05-09T02:08:37.986Z,100184.53
2018-05-09T02:11:10.551Z,100182.13
2018-05-09T02:13:43.088Z,100182.84
2018-05-09T02:16:15.654Z,100177.42
2018-05-09T02:18:48.195Z,100184.13
2018-05-09T02:21:20.765Z,100192.58
2018-05-09T02:23:53.305Z,100185.98
2018-05-09T02:26:25.948Z,100190.41
2018-05-09T02:28:58.483Z,100190.28
2018-05-09T02:31:31.072Z,100189.99
2018-05-09T02:34:03.614Z,100185.54
2018-05-09T02:36:36.190Z,100178.30
2018-05-09T02:39:08.768Z,100176.02
2018-05-09T02:41:41.314Z,100168.94
2018-05-09T02:44:13.854Z,100172.73
2018-05-09T02:46:46.410Z,100178.16
2018-05-09T02:49:18.948Z,100173.03
2018-05-09T02:51:51.511Z,100174.62
2018-05-09T02:54:24.060Z,100174.52
2018-05-09T02:56:56.623Z,100179.78
2018-05-09T02:59:29.161Z,100176.84
2018-05-09T03:02:01.726Z,100179.25
2018-05-09T03:04:34.272Z,100184.83
2018-05-09T03:07:06.850Z,100180.73
2018-05-09T03:09:39.376Z,100171.30
2018-05-09T03:12:11.943Z,100179.97
2018-05-09T03:14:44.480Z,100177.71
2018-05-09T03:17:17.033Z,100180.95
2018-05-09T03:19:49.557Z,100181.59
2018-05-09T03:22:22.126Z,100179.11
2018-05-09T03:24:54.706Z,100182.50
2018-05-09T03:27:27.248Z,100178.23
2018-05-09T03:29:59.850Z,100178.95
2018-05-09T03:32:32.384Z,100182.20
2018-05-09T03:35:04.921Z,100185.63
2018-05-09T03:37:37.482Z,100180.23
2018-05-09T03:40:10.006Z,100187.66
2018-05-09T03:42:42.642Z,100184.13
2018-05-09T03:45:15.171Z,100192.87
2018-05-09T03:47:47.735Z,100190.88
2018-05-09T03:50:20.271Z,100188.68
2018-05-09T03:52:52.824Z,100190.27
2018-05-09T03:55:25.369Z,100196.53
2018-05-09T03:57:57.916Z,100191.06
2018-05-09T04:00:30.524Z,100194.38
2018-05-09T04:03:14.987Z,100195.28
2018-05-09T04:05:59.407Z,100186.53
2018-05-09T04:08:43.935Z,100187.97
2018-05-09T04:11:16.516Z,100187.73
2018-05-09T04:13:49.046Z,100186.97
2018-05-09T04:16:21.595Z,100183.47
2018-05-09T04:18:54.824Z,100178.14
2018-05-09T04:21:27.372Z,100181.49
2018-05-09T04:23:59.905Z,100182.11
2018-05-09T04:26:32.460Z,100177.64
2018-05-09T04:29:05.027Z,100178.64
2018-05-09T04:31:37.572Z,100179.15
2018-05-09T04:34:10.115Z,100177.45
2018-05-09T04:36:42.688Z,100173.38
2018-05-09T04:39:15.228Z,100176.03
2018-05-09T04:41:47.795Z,100174.64
2018-05-09T04:44:20.311Z,100178.77
2018-05-09T04:46:52.887Z,100171.45
2018-05-09T04:49:25.420Z,100180.52
2018-05-09T04:51:58.012Z,100190.56
2018-05-09T04:54:30.570Z,100181.08
2018-05-09T04:57:03.127Z,100186.69
2018-05-09T04:59:35.688Z,100190.67
2018-05-09T05:02:08.241Z,100190.77
2018-05-09T05:04:40.782Z,100189.25
2018-05-09T05:07:13.365Z,100184.33
2018-05-09T05:09:45.909Z,100186.19
2018-05-09T05:12:18.455Z,100183.59
2018-05-09T05:14:51.009Z,100188.92
2018-05-09T05:17:23.565Z,100192.91
2018-05-09T05:19:56.129Z,100194.28
2018-05-09T05:22:28.717Z,100190.06
2018-05-09T05:25:01.277Z,100195.94
2018-05-09T05:27:33.849Z,100187.27
2018-05-09T05:30:06.400Z,100188.31
2018-05-09T05:32:39.013Z,100191.31
2018-05-09T05:35:11.507Z,100190.64
2018-05-09T05:37:44.078Z,100190.59
2018-05-09T05:40:16.618Z,100198.09
2018-05-09T05:42:49.177Z,100189.05
2018-05-09T05:45:21.729Z,100187.78
2018-05-09T05:47:54.362Z,100191.92
2018-05-09T05:50:26.915Z,100196.20
2018-05-09T05:52:59.466Z,100198.59
2018-05-09T05:55:32.002Z,100198.66
2018-05-09T05:58:04.577Z,100194.20
2018-05-09T06:00:37.150Z,100203.69
2018-05-09T06:03:09.718Z,100202.72
2018-05-09T06:05:42.256Z,100204.09
2018-05-09T06:08:14.832Z,100203.31
2018-05-09T06:10:47.385Z,100209.91
2018-05-09T06:13:19.959Z,100200.94
2018-05-09T06:15:52.513Z,100209.58
2018-05-09T06:18:25.090Z,100210.57
2018-05-09T06:20:57.641Z,100210.73
2018-05-09T06:23:30.201Z,100206.16
2018-05-09T06:26:02.757Z,100210.80
2018-05-09T06:28:35.333Z,100210.67
2018-05-09T06:31:07.878Z,100210.97
2018-05-09T06:33:40.442Z,100216.82
2018-05-09T06:36:13.001Z,100214.39
2018-05-09T06:38:45.618Z,100224.58
2018-05-09T06:41:18.167Z,100226.36
2018-05-09T06:43:50.761Z,100236.92
2018-05-09T06:46:23.293Z,100239.25
2018-05-09T06:48:55.879Z,100237.08
2018-05-09T06:51:28.426Z,100239.85
2018-05-09T06:54:00.990Z,100227.99
2018-05-09T06:56:33.568Z,100234.81
2018-05-09T06:59:06.152Z,100222.29
2018-05-09T07:01:38.718Z,100223.26
2018-05-09T07:04:11.287Z,100227.25
2018-05-09T07:06:44.170Z,100226.78
2018-05-09T07:09:16.440Z,100218.41
2018-05-09T07:11:48.992Z,100229.71
2018-05-09T07:14:21.558Z,100231.42
2018-05-09T07:16:54.107Z,100228.16
2018-05-09T07:19:26.670Z,100225.89
2018-05-09T07:21:59.220Z,100232.23
2018-05-09T07:24:31.830Z,100226.11
2018-05-09T07:27:04.389Z,100226.94
2018-05-09T07:29:36.973Z,100228.11
2018-05-09T07:32:09.543Z,100224.62
2018-05-09T07:34:42.105Z,100234.30
2018-05-09T07:37:14.700Z,100235.62
2018-05-09T07:39:47.290Z,100226.39
2018-05-09T07:42:19.876Z,100227.98
2018-05-09T07:44:52.443Z,100227.88
2018-05-09T07:47:25.003Z,100223.34
2018-05-09T07:49:57.536Z,100221.84
2018-05-09T07:52:30.094Z,100222.70
2018-05-09T07:55:02.638Z,100217.03
2018-05-09T07:57:35.205Z,100216.92
2018-05-09T08:00:07.799Z,100218.66
2018-05-09T08:02:40.374Z,100214.24
2018-05-09T08:05:12.919Z,100213.98
2018-05-09T08:07:45.500Z,100215.25
2018-05-09T08:10:18.052Z,100212.63
2018-05-09T08:12:50.729Z,100215.96
2018-05-09T08:15:23.213Z,100208.78
2018-05-09T08:17:55.783Z,100217.80
2018-05-09T08:20:28.364Z,100215.57
2018-05-09T08:23:00.956Z,100214.35
2018-05-09T08:25:33.531Z,100209.69
2018-05-09T08:28:06.137Z,100215.03
2018-05-09T08:30:38.851Z,100215.28
2018-05-09T08:33:11.798Z,100220.80
2018-05-09T08:35:44.354Z,100211.47
2018-05-09T08:38:17.021Z,100211.91
2018-05-09T08:40:49.530Z,100212.59
2018-05-09T08:43:22.192Z,100201.59
2018-05-09T08:45:54.707Z,100202.65
2018-05-09T08:48:27.306Z,100200.67
2018-05-09T08:50:59.855Z,100202.30
2018-05-09T08:53:32.426Z,100206.02
2018-05-09T08:56:04.965Z,100201.75
2018-05-09T08:58:37.540Z,100204.08
2018-05-09T09:01:10.074Z,100202.16
2018-05-09T09:03:42.662Z,100196.31
2018-05-09T09:06:15.204Z,100195.45
2018-05-09T09:08:47.789Z,100191.19
2018-05-09T09:11:20.336Z,100194.92
2018-05-09T09:13:52.913Z,100187.75
2018-05-09T09:16:25.480Z,100187.66
2018-05-09T09:18:58.060Z,100184.66
2018-05-09T09:21:30.625Z,100183.91
2018-05-09T09:24:03.221Z,100180.20
2018-05-09T09:26:35.778Z,100176.55
2018-05-09T09:29:08.533Z,100185.11
2018-05-09T09:31:40.964Z,100176.39
2018-05-09T09:34:13.550Z,100176.86
2018-05-09T09:36:46.123Z,100176.42
2018-05-09T09:39:18.678Z,100169.13
2018-05-09T09:41:51.417Z,100172.55
2018-05-09T09:44:24.163Z,100169.88
2018-05-09T09:46:56.762Z,100165.01
2018-05-09T09:49:29.343Z,100159.15
2018-05-09T09:52:01.921Z,100164.70
2018-05-09T09:54:35.476Z,100156.86
2018-05-09T09:57:08.119Z,100162.58
2018-05-09T09:59:40.705Z,100153.11
2018-05-09T10:02:13.295Z,100152.58
2018-05-09T10:04:45.885Z,100153.20
2018-05-09T10:07:18.439Z,100149.97
2018-05-09T10:09:53.642Z,100149.84
2018-05-09T10:12:26.213Z,100143.80
2018-05-09T10:14:58.809Z,100152.27
2018-05-09T10:17:31.381Z,100142.67
2018-05-09T10:20:03.963Z,100143.05
2018-05-09T10:22:36.519Z,100134.05
2018-05-09T10:25:09.122Z,100135.41
2018-05-09T10:27:41.703Z,100136.91
2018-05-09T10:30:14.282Z,100138.77
2018-05-09T10:32:46.868Z,100131.09
2018-05-09T10:35:19.450Z,100124.25
2018-05-09T10:37:52.210Z,100121.39
2018-05-09T10:40:24.800Z,100127.89
2018-05-09T10:47:49.556Z,100113.61
2018-05-09T10:50:22.075Z,100119.05
2018-05-09T10:52:54.584Z,100116.72
2018-05-09T10:55:27.115Z,100118.73
2018-05-09T10:57:59.611Z,100119.55
2018-05-09T11:00:32.872Z,100109.46
2018-05-09T11:03:05.370Z,100112.38
2018-05-09T11:05:37.901Z,100095.01
2018-05-09T11:08:10.403Z,100097.15
2018-05-09T11:10:42.927Z,100097.16
2018-05-09T11:13:15.476Z,100098.41
2018-05-09T11:15:48.004Z,100091.92
2018-05-09T11:18:20.507Z,100089.13
2018-05-09T11:20:53.033Z,100083.07
2018-05-09T11:23:25.546Z,100091.94
2018-05-09T11:25:58.079Z,100079.21
2018-05-09T11:28:30.641Z,100081.77
2018-05-09T11:31:03.644Z,100076.94
2018-05-09T11:33:36.166Z,100073.52
2018-05-09T11:36:08.664Z,100068.05
2018-05-09T11:38:41.179Z,100068.52
2018-05-09T11:41:13.688Z,100064.64
2018-05-09T11:43:46.219Z,100068.06
2018-05-09T11:46:18.714Z,100059.30
2018-05-09T11:48:51.235Z,100062.27
2018-05-09T11:51:23.730Z,100062.78
2018-05-09T11:53:56.268Z,100054.14
2018-05-09T11:56:28.780Z,100055.12
2018-05-09T11:59:01.299Z,100051.30
2018-05-09T12:01:34.828Z,100048.45
2018-05-09T12:04:07.343Z,100053.95
2018-05-09T12:06:39.861Z,100042.34
2018-05-09T12:09:12.396Z,100033.59
2018-05-09T12:11:44.892Z,100039.51
2018-05-09T12:14:17.417Z,100040.28
2018-05-09T12:16:49.923Z,100041.47
2018-05-09T12:19:22.447Z,100042.02
2018-05-09T12:21:54.986Z,100042.42
2018-05-09T12:24:27.596Z,100026.07
2018-05-09T12:27:00.097Z,100029.00
2018-05-09T12:29:33.109Z,100027.27
2018-05-09T12:32:05.617Z,100031.77
2018-05-09T12:34:38.142Z,100028.47
2018-05-09T12:37:10.656Z,100020.47
2018-05-09T12:39:43.196Z,100012.87
2018-05-09T12:42:15.701Z,100006.09
2018-05-09T12:44:48.224Z,100007.90
2018-05-09T12:47:20.729Z,100006.26
2018-05-09T12:49:53.257Z,100005.89
2018-05-09T12:52:25.746Z,100005.46
2018-05-09T12:54:58.264Z,100002.98
2018-05-09T12:57:30.767Z,99996.72
2018-05-09T13:00:04.000Z,99991.66
2018-05-09T13:02:36.497Z,99997.82
2018-05-09T13:05:09.016Z,99991.55
2018-05-09T13:07:41.520Z,99985.89
2018-05-09T13:10:14.038Z,99976.97
2018-05-09T13:12:46.536Z,99985.11
2018-05-09T13:15:19.057Z,99978.38
2018-05-09T13:17:51.555Z,99977.26
2018-05-09T13:20:24.094Z,99971.26
2018-05-09T13:22:56.590Z,99964.59
2018-05-09T13:25:29.099Z,99971.71
2018-05-09T13:28:01.883Z,99977.91
2018-05-09T13:30:34.405Z,99977.48
2018-05-09T13:33:06.909Z,99973.52
2018-05-09T13:35:39.427Z,99972.01
2018-05-09T13:38:11.945Z,99961.42
2018-05-09T13:40:44.456Z,99966.70
2018-05-09T13:43:16.959Z,99957.97
2018-05-09T13:45:49.499Z,99955.52
2018-05-09T13:48:21.989Z,99956.72
2018-05-09T13:50:54.494Z,99941.64
2018-05-09T13:53:26.987Z,99959.21
2018-05-09T13:55:59.505Z,99946.22
2018-05-09T13:58:31.995Z,99949.11
2018-05-09T14:01:04.503Z,99936.89
2018-05-09T14:03:37.026Z,99941.35
2018-05-09T14:06:09.536Z,99936.75
2018-05-09T14:08:42.025Z,99936.32
2018-05-09T14:11:14.544Z,99934.47
2018-05-09T14:13:47.048Z,99923.06
2018-05-09T14:16:19.564Z,99924.42
2018-05-09T14:18:52.056Z,99922.07
2018-05-09T14:21:24.628Z,99919.82
2018-05-09T14:23:57.146Z,99922.18
2018-05-09T14:26:29.683Z,99921.83
2018-05-09T14:29:02.740Z,99920.70
2018-05-09T14:31:35.296Z,99914.39
2018-05-09T14:34:07.771Z,99920.06
2018-05-09T14:36:40.280Z,99912.04
2018-05-09T14:39:12.783Z,99913.27
2018-05-09T14:41:45.307Z,99911.41
2018-05-09T14:44:17.832Z,99915.11
2018-05-09T14:46:50.362Z,99903.88
2018-05-09T14:49:22.871Z,99895.69
2018-05-09T14:51:55.376Z,99891.66
2018-05-09T14:54:27.878Z,99909.73
2018-05-09T14:57:00.414Z,99891.55
2018-05-09T14:59:32.941Z,99890.38
2018-05-09T15:02:06.249Z,99879.89
2018-05-09T15:04:38.743Z,99889.59
2018-05-09T15:07:11.243Z,99889.64
2018-05-09T15:09:43.743Z,99888.36
2018-05-09T15:12:16.312Z,99883.01
2018-05-09T15:14:48.843Z,99882.96
2018-05-09T15:17:21.339Z,99870.98
2018-05-09T15:19:53.906Z,99869.63
2018-05-09T15:22:26.403Z,99856.40
2018-05-09T15:24:58.920Z,99869.62
2018-05-09T15:27:31.414Z,99870.34
2018-05-09T15:30:03.981Z,99859.41
2018-05-09T15:32:36.476Z,99858.30
2018-05-09T15:35:09.317Z,99851.28
2018-05-09T15:37:41.808Z,99854.03
2018-05-09T15:40:14.337Z,99858.57
2018-05-09T15:42:46.846Z,99858.89
2018-05-09T15:45:19.366Z,99852.25
2018-05-09T15:47:51.873Z,99842.52
2018-05-09T15:50:24.399Z,99850.39
2018-05-09T15:52:56.909Z,99847.48
2018-05-09T15:55:29.427Z,99843.34
2018-05-09T15:58:01.929Z,99840.58
2018-05-09T16:00:34.452Z,99846.04
2018-05-09T16:03:06.958Z,99841.45
2018-05-09T16:05:39.481Z,99847.56
2018-05-09T16:08:11.987Z,99839.09
2018-05-09T16:10:44.505Z,99843.78
2018-05-09T16:13:17.016Z,99848.63
2018-05-09T16:15:49.541Z,99840.20
2018-05-09T16:18:22.046Z,99838.00
2018-05-09T16:20:54.577Z,99846.64
2018-05-09T16:23:27.108Z,99839.41
2018-05-09T16:25:59.632Z,99839.95
2018-05-09T16:28:32.765Z,99836.95
2018-05-09T16:31:05.279Z,99833.73
2018-05-09T16:33:37.781Z,99845.63
2018-05-09T16:36:10.313Z,99841.15
2018-05-09T16:38:42.828Z,99848.80
2018-05-09T16:41:15.364Z,99847.59
2018-05-09T16:43:47.969Z,99841.51
2018-05-09T16:46:20.503Z,99840.45
2018-05-09T16:48:53.004Z,99837.98
2018-05-09T16:51:25.521Z,99835.88
2018-05-09T16:54:01.014Z,99841.06
2018-05-09T16:56:33.564Z,99840.96
2018-05-09T16:59:06.087Z,99835.23
2018-05-09T17:01:38.667Z,99834.92
2018-05-09T17:04:11.197Z,99829.56
2018-05-09T17:06:43.770Z,99833.58
2018-05-09T17:09:16.293Z,99828.63
2018-05-09T17:11:48.857Z,99830.67
2018-05-09T17:14:21.398Z,99821.90
2018-05-09T17:16:53.967Z,99823.77
2018-05-09T17:19:26.503Z,99821.44
2018-05-09T17:22:16.548Z,99826.61
2018-05-09T17:24:49.115Z,99817.44
2018-05-09T17:27:21.656Z,99819.90
2018-05-09T17:29:54.215Z,99816.77
2018-05-09T17:32:26.772Z,99814.46
2018-05-09T17:34:59.303Z,99813.41
2018-05-09T17:37:31.861Z,99814.06
2018-05-09T17:40:04.384Z,99812.47
2018-05-09T17:42:37.033Z,99813.05
2018-05-09T17:45:09.522Z,99809.94
2018-05-09T17:47:42.064Z,99809.20
2018-05-09T17:50:14.634Z,99805.89
2018-05-09T17:52:47.167Z,99809.55
2018-05-09T17:55:19.719Z,99803.16
2018-05-09T17:57:52.280Z,99806.12
2018-05-09T18:00:24.848Z,99801.56
2018-05-09T18:02:57.394Z,99797.54
2018-05-09T18:05:29.934Z,99806.05
2018-05-09T18:08:02.475Z,99805.73
2018-05-09T18:10:35.039Z,99805.02
2018-05-09T18:13:07.577Z,99809.06
2018-05-09T18:15:40.124Z,99812.23
2018-05-09T18:18:12.648Z,99806.75
2018-05-09T18:20:45.201Z,99809.22
2018-05-09T18:23:17.720Z,99806.20
2018-05-09T18:25:50.262Z,99811.13
2018-05-09T18:28:22.775Z,99806.37
2018-05-09T18:30:55.317Z,99805.17
2018-05-09T18:33:27.863Z,99806.11
2018-05-09T18:36:00.397Z,99807.04
2018-05-09T18:38:33.688Z,99810.31
2018-05-09T18:41:06.249Z,99803.47
2018-05-09T18:43:38.771Z,99798.56
2018-05-09T18:46:11.390Z,99809.73
2018-05-09T18:48:43.870Z,99811.51
2018-05-09T18:51:16.413Z,99810.55
2018-05-09T18:53:48.952Z,99808.69
2018-05-09T18:56:21.480Z,99808.75
2018-05-09T18:58:54.021Z,99811.42
2018-05-09T19:01:26.577Z,99806.61
2018-05-09T19:03:59.107Z,99810.73
2018-05-09T19:06:32.013Z,99803.34
2018-05-09T19:09:04.564Z,99802.52
2018-05-09T19:11:37.125Z,99804.92
2018-05-09T19:14:09.671Z,99798.45
2018-05-09T19:16:42.208Z,99803.30
2018-05-09T19:19:14.757Z,99804.52
2018-05-09T19:21:47.326Z,99808.92
2018-05-09T19:24:19.854Z,99805.91
2018-05-09T19:26:52.389Z,99806.77
2018-05-09T19:29:24.926Z,99815.28
2018-05-09T19:31:57.470Z,99815.61
2018-05-09T19:34:30.023Z,99821.20
2018-05-09T19:37:02.567Z,99825.14
2018-05-09T19:39:35.120Z,99831.47
2018-05-09T19:42:07.682Z,99829.88
2018-05-09T19:44:40.205Z,99830.28
2018-05-09T19:47:12.748Z,99834.11
2018-05-09T19:49:45.350Z,99832.09
2018-05-09T19:52:17.894Z,99838.12
2018-05-09T19:54:50.445Z,99832.87
2018-05-09T19:57:23.010Z,99838.92
2018-05-09T19:59:55.570Z,99829.97
2018-05-09T20:02:28.121Z,99833.65
2018-05-09T20:05:00.688Z,99837.59
2018-05-09T20:07:33.243Z,99839.38
2018-05-09T20:10:05.782Z,99833.69
2018-05-09T20:12:38.311Z,99831.60
2018-05-09T20:15:10.843Z,99832.58
2018-05-09T20:17:43.385Z,99826.13
2018-05-09T20:20:15.968Z,99826.83
2018-05-09T20:22:48.525Z,99826.69
2018-05-09T20:25:21.060Z,99827.22
2018-05-09T20:27:53.623Z,99828.53
2018-05-09T20:30:31.810Z,99834.45
2018-05-09T20:33:04.375Z,99828.88
2018-05-09T20:35:36.902Z,99826.89
2018-05-09T20:38:09.450Z,99826.83
2018-05-09T20:40:41.985Z,99829.23
2018-05-09T20:43:14.537Z,99826.87
2018-05-09T20:45:47.070Z,99833.02
2018-05-09T20:48:19.629Z,99829.12
2018-05-09T20:50:52.157Z,99833.33
2018-05-09T20:53:24.697Z,99835.94
2018-05-09T20:55:57.216Z,99837.50
2018-05-09T20:58:29.769Z,99838.16
2018-05-09T21:01:14.032Z,99839.99
2018-05-09T21:03:46.614Z,99841.91
2018-05-09T21:06:19.151Z,99841.13
2018-05-09T21:08:51.747Z,99837.79
2018-05-09T21:11:24.287Z,99840.56
2018-05-09T21:13:57.802Z,99844.46
2018-05-09T21:16:30.310Z,99843.43
2018-05-09T21:19:02.851Z,99839.73
2018-05-09T21:21:35.389Z,99842.97
2018-05-09T21:24:07.937Z,99839.02
2018-05-09T21:26:40.460Z,99837.21
2018-05-09T21:29:13.015Z,99834.30
2018-05-09T21:31:45.551Z,99833.35
2018-05-09T21:34:18.089Z,99836.42
2018-05-09T21:36:50.611Z,99837.58
2018-05-09T21:39:23.161Z,99843.58
2018-05-09T21:41:55.689Z,99843.58
2018-05-09T21:44:28.256Z,99844.27
2018-05-09T21:47:00.791Z,99841.45
2018-05-09T21:49:33.346Z,99846.13
2018-05-09T21:52:05.875Z,99847.61
2018-05-09T21:54:38.423Z,99844.20
2018-05-09T21:57:10.953Z,99834.32
2018-05-09T21:59:43.501Z,99841.70
2018-05-09T22:02:16.032Z,99840.87
2018-05-09T22:04:48.574Z,99839.19
2018-05-09T22:07:21.105Z,99834.49
2018-05-09T22:09:53.665Z,99838.66
2018-05-09T22:12:26.189Z,99839.22
2018-05-09T22:14:58.725Z,99839.28
2018-05-09T22:17:33.785Z,99827.62
2018-05-09T22:20:06.341Z,99825.01
2018-05-09T22:22:38.894Z,99820.39
2018-05-09T22:25:11.414Z,99825.11
2018-05-09T22:27:43.954Z,99819.37
2018-05-09T22:30:16.501Z,99817.11
2018-05-09T22:32:49.053Z,99816.79
2018-05-09T22:35:21.573Z,99816.53
2018-05-09T22:37:54.198Z,99824.59
2018-05-09T22:40:26.758Z,99826.16
2018-05-09T22:42:59.339Z,99818.98
2018-05-09T22:45:32.304Z,99816.61
2018-05-09T22:48:04.887Z,99812.58
2018-05-09T22:50:37.443Z,99818.52
2018-05-09T22:53:10.056Z,99812.05
2018-05-09T22:55:42.624Z,99812.42
2018-05-09T22:58:15.209Z,99810.21
2018-05-09T23:00:47.740Z,99808.71
2018-05-09T23:03:20.285Z,99807.35
2018-05-09T23:05:52.829Z,99803.61
2018-05-09T23:08:25.392Z,99798.70
2018-05-09T23:10:57.915Z,99799.43
2018-05-09T23:13:30.465Z,99803.14
2018-05-09T23:16:02.993Z,99792.70
2018-05-09T23:18:35.557Z,99793.88
2018-05-09T23:21:08.084Z,99794.24
2018-05-09T23:23:40.625Z,99800.41
2018-05-09T23:26:13.153Z,99793.18
2018-05-09T23:28:45.695Z,99792.09
2018-05-09T23:31:18.209Z,99780.59
2018-05-09T23:33:50.757Z,99775.48
2018-05-09T23:36:23.281Z,99783.70
2018-05-09T23:38:55.856Z,99774.27
2018-05-09T23:41:28.383Z,99767.86
2018-05-09T23:44:00.969Z,99758.87
2018-05-09T23:46:33.485Z,99767.92
2018-05-09T23:51:44.931Z,99761.63
2018-05-09T23:54:17.476Z,99759.36
2018-05-09T23:56:50.001Z,99757.33
2018-05-09T23:59:22.566Z,99760.11
